sensor_id;sensor_type;location;lat;lon;timestamp;pressure;altitude;pressure_sealevel;temperature;humidity
5053;BME280;2545;50.892;5.740;2023-07-31T00:02:15;56155.22;;;-142.21;100.00
5053;BME280;2545;50.892;5.740;2023-07-31T00:04:40;56163.06;;;-142.21;100.00
5053;BME280;2545;50.892;5.740;2023-07-31T00:07:06;56208.16;;;-142.21;100.00
5053;BME280;2545;50.892;5.740;2023-07-31T00:09:32;56178.75;;;-142.21;100.00
5053;BME280;2545;50.892;5.740;2023-07-31T00:11:58;56143.47;;;-142.21;100.00
5053;BME280;2545;50.892;5.740;2023-07-31T00:14:23;56176.78;;;-142.21;100.00
5053;BME280;2545;50.892;5.740;2023-07-31T00:16:48;56210.13;;;-142.21;100.00
5053;BME280;2545;50.892;5.740;2023-07-31T00:19:14;56212.09;;;-142.21;100.00
5053;BME280;2545;50.892;5.740;2023-07-31T00:21:39;56196.41;;;-142.21;100.00
5053;BME280;2545;50.892;5.740;2023-07-31T00:24:04;56190.53;;;-142.21;100.00
5053;BME280;2545;50.892;5.740;2023-07-31T00:26:30;56184.66;;;-142.21;100.00
5053;BME280;2545;50.892;5.740;2023-07-31T00:28:55;56149.34;;;-142.21;100.00
5053;BME280;2545;50.892;5.740;2023-07-31T00:31:20;56180.72;;;-142.21;100.00
5053;BME280;2545;50.892;5.740;2023-07-31T00:33:46;56214.06;;;-142.21;100.00
5053;BME280;2545;50.892;5.740;2023-07-31T00:36:11;56192.50;;;-142.21;100.00
5053;BME280;2545;50.892;5.740;2023-07-31T00:38:36;56198.38;;;-142.21;100.00
5053;BME280;2545;50.892;5.740;2023-07-31T00:41:02;56190.53;;;-142.21;100.00
5053;BME280;2545;50.892;5.740;2023-07-31T00:43:27;56168.97;;;-142.21;100.00
5053;BME280;2545;50.892;5.740;2023-07-31T00:45:53;56190.53;;;-142.21;100.00
5053;BME280;2545;50.892;5.740;2023-07-31T00:48:18;56182.69;;;-142.21;100.00
5053;BME280;2545;50.892;5.740;2023-07-31T00:50:44;56174.84;;;-142.21;100.00
5053;BME280;2545;50.892;5.740;2023-07-31T00:53:09;56182.69;;;-142.21;100.00
5053;BME280;2545;50.892;5.740;2023-07-31T00:55:35;56172.88;;;-142.21;100.00
5053;BME280;2545;50.892;5.740;2023-07-31T00:58:00;56170.91;;;-142.21;100.00
5053;BME280;2545;50.892;5.740;2023-07-31T01:00:25;56178.75;;;-142.21;100.00
5053;BME280;2545;50.892;5.740;2023-07-31T01:02:51;56180.72;;;-142.21;100.00
5053;BME280;2545;50.892;5.740;2023-07-31T01:05:23;56139.53;;;-142.21;100.00
5053;BME280;2545;50.892;5.740;2023-07-31T01:08:03;56186.59;;;-142.21;100.00
5053;BME280;2545;50.892;5.740;2023-07-31T01:10:37;56125.81;;;-142.21;100.00
5053;BME280;2545;50.892;5.740;2023-07-31T01:13:07;56214.06;;;-142.21;100.00
5053;BME280;2545;50.892;5.740;2023-07-31T01:15:33;56182.69;;;-142.21;100.00
5053;BME280;2545;50.892;5.740;2023-07-31T01:17:58;56135.63;;;-142.21;100.00
5053;BME280;2545;50.892;5.740;2023-07-31T01:20:26;56196.41;;;-142.21;100.00
5053;BME280;2545;50.892;5.740;2023-07-31T01:26:03;56194.44;;;-142.21;100.00
5053;BME280;2545;50.892;5.740;2023-07-31T01:28:46;56170.91;;;-142.21;100.00
5053;BME280;2545;50.892;5.740;2023-07-31T01:31:17;56155.22;;;-142.21;100.00
5053;BME280;2545;50.892;5.740;2023-07-31T01:33:43;56170.91;;;-142.21;100.00
5053;BME280;2545;50.892;5.740;2023-07-31T01:36:10;56174.84;;;-142.21;100.00
5053;BME280;2545;50.892;5.740;2023-07-31T01:38:35;56190.53;;;-142.21;100.00
5053;BME280;2545;50.892;5.740;2023-07-31T01:41:01;56176.78;;;-142.21;100.00
5053;BME280;2545;50.892;5.740;2023-07-31T01:43:26;56168.97;;;-142.21;100.00
5053;BME280;2545;50.892;5.740;2023-07-31T01:45:51;56165.03;;;-142.21;100.00
5053;BME280;2545;50.892;5.740;2023-07-31T01:48:17;56182.69;;;-142.21;100.00
5053;BME280;2545;50.892;5.740;2023-07-31T01:50:42;56184.66;;;-142.21;100.00
5053;BME280;2545;50.892;5.740;2023-07-31T01:53:07;56194.44;;;-142.21;100.00
5053;BME280;2545;50.892;5.740;2023-07-31T01:55:33;56198.38;;;-142.21;100.00
5053;BME280;2545;50.892;5.740;2023-07-31T01:57:58;56168.97;;;-142.21;100.00
5053;BME280;2545;50.892;5.740;2023-07-31T02:00:23;56157.19;;;-142.21;100.00
5053;BME280;2545;50.892;5.740;2023-07-31T02:02:49;56168.97;;;-142.21;100.00
5053;BME280;2545;50.892;5.740;2023-07-31T02:05:14;56180.72;;;-142.21;100.00
5053;BME280;2545;50.892;5.740;2023-07-31T02:07:39;56151.31;;;-142.21;100.00
5053;BME280;2545;50.892;5.740;2023-07-31T02:10:05;56161.13;;;-142.21;100.00
5053;BME280;2545;50.892;5.740;2023-07-31T02:12:30;56141.50;;;-142.21;100.00
5053;BME280;2545;50.892;5.740;2023-07-31T02:14:57;56143.47;;;-142.21;100.00
5053;BME280;2545;50.892;5.740;2023-07-31T02:17:22;56186.59;;;-142.21;100.00
5053;BME280;2545;50.892;5.740;2023-07-31T02:19:48;56174.84;;;-142.21;100.00
5053;BME280;2545;50.892;5.740;2023-07-31T02:22:13;56114.06;;;-142.21;100.00
5053;BME280;2545;50.892;5.740;2023-07-31T02:24:39;56208.16;;;-142.21;100.00
5053;BME280;2545;50.892;5.740;2023-07-31T02:27:04;56172.88;;;-142.21;100.00
5053;BME280;2545;50.892;5.740;2023-07-31T02:29:30;56149.34;;;-142.21;100.00
5053;BME280;2545;50.892;5.740;2023-07-31T02:31:55;56184.66;;;-142.21;100.00
5053;BME280;2545;50.892;5.740;2023-07-31T02:34:20;56168.97;;;-142.21;100.00
5053;BME280;2545;50.892;5.740;2023-07-31T02:36:46;56217.97;;;-142.21;100.00
5053;BME280;2545;50.892;5.740;2023-07-31T02:39:11;56182.69;;;-142.21;100.00
5053;BME280;2545;50.892;5.740;2023-07-31T02:41:36;56163.06;;;-142.21;100.00
5053;BME280;2545;50.892;5.740;2023-07-31T02:44:01;56147.38;;;-142.21;100.00
5053;BME280;2545;50.892;5.740;2023-07-31T02:46:27;56165.03;;;-142.21;100.00
5053;BME280;2545;50.892;5.740;2023-07-31T02:48:52;56204.25;;;-142.21;100.00
5053;BME280;2545;50.892;5.740;2023-07-31T02:51:17;56170.91;;;-142.21;100.00
5053;BME280;2545;50.892;5.740;2023-07-31T02:53:43;56176.78;;;-142.21;100.00
5053;BME280;2545;50.892;5.740;2023-07-31T02:56:08;56182.69;;;-142.21;100.00
5053;BME280;2545;50.892;5.740;2023-07-31T02:58:34;56159.16;;;-142.21;100.00
5053;BME280;2545;50.892;5.740;2023-07-31T03:00:59;56176.78;;;-142.21;100.00
5053;BME280;2545;50.892;5.740;2023-07-31T03:03:25;56202.28;;;-142.21;100.00
5053;BME280;2545;50.892;5.740;2023-07-31T03:05:50;56157.19;;;-142.21;100.00
5053;BME280;2545;50.892;5.740;2023-07-31T03:08:15;56192.50;;;-142.21;100.00
5053;BME280;2545;50.892;5.740;2023-07-31T03:10:41;56204.25;;;-142.21;100.00
5053;BME280;2545;50.892;5.740;2023-07-31T03:13:06;56139.53;;;-142.21;100.00
5053;BME280;2545;50.892;5.740;2023-07-31T03:15:32;56198.38;;;-142.21;100.00
5053;BME280;2545;50.892;5.740;2023-07-31T03:17:57;56172.88;;;-142.21;100.00
5053;BME280;2545;50.892;5.740;2023-07-31T03:20:23;56174.84;;;-142.21;100.00
5053;BME280;2545;50.892;5.740;2023-07-31T03:22:48;56159.16;;;-142.21;100.00
5053;BME280;2545;50.892;5.740;2023-07-31T03:25:13;56192.50;;;-142.21;100.00
5053;BME280;2545;50.892;5.740;2023-07-31T03:27:39;56190.53;;;-142.21;100.00
5053;BME280;2545;50.892;5.740;2023-07-31T03:30:05;56186.59;;;-142.21;100.00
5053;BME280;2545;50.892;5.740;2023-07-31T03:32:31;56198.38;;;-142.21;100.00
5053;BME280;2545;50.892;5.740;2023-07-31T03:34:57;56202.28;;;-142.21;100.00
5053;BME280;2545;50.892;5.740;2023-07-31T03:37:22;56159.16;;;-142.21;100.00
5053;BME280;2545;50.892;5.740;2023-07-31T03:39:48;56184.66;;;-142.21;100.00
5053;BME280;2545;50.892;5.740;2023-07-31T03:42:13;56188.56;;;-142.21;100.00
5053;BME280;2545;50.892;5.740;2023-07-31T03:44:38;56186.59;;;-142.21;100.00
5053;BME280;2545;50.892;5.740;2023-07-31T03:47:04;56157.19;;;-142.21;100.00
5053;BME280;2545;50.892;5.740;2023-07-31T03:49:30;56202.28;;;-142.21;100.00
5053;BME280;2545;50.892;5.740;2023-07-31T03:51:55;56165.03;;;-142.21;100.00
5053;BME280;2545;50.892;5.740;2023-07-31T03:54:21;56163.06;;;-142.21;100.00
5053;BME280;2545;50.892;5.740;2023-07-31T03:56:46;56157.19;;;-142.21;100.00
5053;BME280;2545;50.892;5.740;2023-07-31T03:59:12;56184.66;;;-142.21;100.00
5053;BME280;2545;50.892;5.740;2023-07-31T04:01:37;56178.75;;;-142.21;100.00
5053;BME280;2545;50.892;5.740;2023-07-31T04:04:02;56157.19;;;-142.21;100.00
5053;BME280;2545;50.892;5.740;2023-07-31T04:06:28;56186.59;;;-142.21;100.00
5053;BME280;2545;50.892;5.740;2023-07-31T04:08:53;56165.03;;;-142.21;100.00
5053;BME280;2545;50.892;5.740;2023-07-31T04:11:18;56141.50;;;-142.21;100.00
5053;BME280;2545;50.892;5.740;2023-07-31T04:13:44;56163.06;;;-142.21;100.00
5053;BME280;2545;50.892;5.740;2023-07-31T04:16:09;56184.66;;;-142.21;100.00
5053;BME280;2545;50.892;5.740;2023-07-31T04:18:35;56165.03;;;-142.21;100.00
5053;BME280;2545;50.892;5.740;2023-07-31T04:21:00;56151.31;;;-142.21;100.00
5053;BME280;2545;50.892;5.740;2023-07-31T04:23:26;56200.34;;;-142.21;100.00
5053;BME280;2545;50.892;5.740;2023-07-31T04:25:51;56167.00;;;-142.21;100.00
5053;BME280;2545;50.892;5.740;2023-07-31T04:28:17;56165.03;;;-142.21;100.00
5053;BME280;2545;50.892;5.740;2023-07-31T04:30:42;56159.16;;;-142.21;100.00
5053;BME280;2545;50.892;5.740;2023-07-31T04:33:08;56131.69;;;-142.21;100.00
5053;BME280;2545;50.892;5.740;2023-07-31T04:35:33;56194.44;;;-142.21;100.00
5053;BME280;2545;50.892;5.740;2023-07-31T04:37:59;56165.03;;;-142.21;100.00
5053;BME280;2545;50.892;5.740;2023-07-31T04:40:24;56163.06;;;-142.21;100.00
5053;BME280;2545;50.892;5.740;2023-07-31T04:42:49;56155.22;;;-142.21;100.00
5053;BME280;2545;50.892;5.740;2023-07-31T04:45:15;56159.16;;;-142.21;100.00
5053;BME280;2545;50.892;5.740;2023-07-31T04:47:40;56153.28;;;-142.21;100.00
5053;BME280;2545;50.892;5.740;2023-07-31T04:50:06;56186.59;;;-142.21;100.00
5053;BME280;2545;50.892;5.740;2023-07-31T04:52:31;56155.22;;;-142.21;100.00
5053;BME280;2545;50.892;5.740;2023-07-31T04:54:57;56172.88;;;-142.21;100.00
5053;BME280;2545;50.892;5.740;2023-07-31T04:57:22;56163.06;;;-142.21;100.00
5053;BME280;2545;50.892;5.740;2023-07-31T04:59:47;56170.91;;;-142.21;100.00
5053;BME280;2545;50.892;5.740;2023-07-31T05:02:13;56186.59;;;-142.21;100.00
5053;BME280;2545;50.892;5.740;2023-07-31T05:04:39;56176.78;;;-142.21;100.00
5053;BME280;2545;50.892;5.740;2023-07-31T05:07:04;56210.13;;;-142.21;100.00
5053;BME280;2545;50.892;5.740;2023-07-31T05:09:30;56163.06;;;-142.21;100.00
5053;BME280;2545;50.892;5.740;2023-07-31T05:11:55;56172.88;;;-142.21;100.00
5053;BME280;2545;50.892;5.740;2023-07-31T05:14:20;56170.91;;;-142.21;100.00
5053;BME280;2545;50.892;5.740;2023-07-31T05:16:45;56188.56;;;-142.21;100.00
5053;BME280;2545;50.892;5.740;2023-07-31T05:19:11;56190.53;;;-142.21;100.00
5053;BME280;2545;50.892;5.740;2023-07-31T05:21:36;56174.84;;;-142.21;100.00
5053;BME280;2545;50.892;5.740;2023-07-31T05:24:02;56184.66;;;-142.21;100.00
5053;BME280;2545;50.892;5.740;2023-07-31T05:26:28;56225.81;;;-142.21;100.00
5053;BME280;2545;50.892;5.740;2023-07-31T05:28:53;56190.53;;;-142.21;100.00
5053;BME280;2545;50.892;5.740;2023-07-31T05:31:18;56196.41;;;-142.21;100.00
5053;BME280;2545;50.892;5.740;2023-07-31T05:33:44;56170.91;;;-142.21;100.00
5053;BME280;2545;50.892;5.740;2023-07-31T05:36:09;56194.44;;;-142.21;100.00
5053;BME280;2545;50.892;5.740;2023-07-31T05:38:34;56196.41;;;-142.21;100.00
5053;BME280;2545;50.892;5.740;2023-07-31T05:41:00;56167.00;;;-142.21;100.00
5053;BME280;2545;50.892;5.740;2023-07-31T05:43:25;56237.59;;;-142.21;100.00
5053;BME280;2545;50.892;5.740;2023-07-31T05:45:51;56200.34;;;-142.21;100.00
5053;BME280;2545;50.892;5.740;2023-07-31T05:48:16;56229.75;;;-142.21;100.00
5053;BME280;2545;50.892;5.740;2023-07-31T05:50:43;56170.91;;;-142.21;100.00
5053;BME280;2545;50.892;5.740;2023-07-31T05:53:08;56186.59;;;-142.21;100.00
5053;BME280;2545;50.892;5.740;2023-07-31T05:55:35;56165.03;;;-142.21;100.00
5053;BME280;2545;50.892;5.740;2023-07-31T05:58:01;56243.47;;;-142.21;100.00
5053;BME280;2545;50.892;5.740;2023-07-31T06:00:27;56192.50;;;-142.21;100.00
5053;BME280;2545;50.892;5.740;2023-07-31T06:02:53;56170.91;;;-142.21;100.00
5053;BME280;2545;50.892;5.740;2023-07-31T06:05:18;56190.53;;;-142.21;100.00
5053;BME280;2545;50.892;5.740;2023-07-31T06:07:44;56208.16;;;-142.21;100.00
5053;BME280;2545;50.892;5.740;2023-07-31T06:10:09;56161.13;;;-142.21;100.00
5053;BME280;2545;50.892;5.740;2023-07-31T06:12:35;56188.56;;;-142.21;100.00
5053;BME280;2545;50.892;5.740;2023-07-31T06:15:02;56155.22;;;-142.21;100.00
5053;BME280;2545;50.892;5.740;2023-07-31T06:17:28;56182.69;;;-142.21;100.00
5053;BME280;2545;50.892;5.740;2023-07-31T06:19:54;56188.56;;;-142.21;100.00
5053;BME280;2545;50.892;5.740;2023-07-31T06:22:19;56192.50;;;-142.21;100.00
5053;BME280;2545;50.892;5.740;2023-07-31T06:24:45;56174.84;;;-142.21;100.00
5053;BME280;2545;50.892;5.740;2023-07-31T06:27:10;56180.72;;;-142.21;100.00
5053;BME280;2545;50.892;5.740;2023-07-31T06:29:36;56145.44;;;-142.21;100.00
5053;BME280;2545;50.892;5.740;2023-07-31T06:32:01;56204.25;;;-142.21;100.00
5053;BME280;2545;50.892;5.740;2023-07-31T06:34:27;56221.91;;;-142.21;100.00
5053;BME280;2545;50.892;5.740;2023-07-31T06:36:52;56202.28;;;-142.21;100.00
5053;BME280;2545;50.892;5.740;2023-07-31T06:39:17;56216.00;;;-142.21;100.00
5053;BME280;2545;50.892;5.740;2023-07-31T06:41:44;56170.91;;;-142.21;100.00
5053;BME280;2545;50.892;5.740;2023-07-31T06:44:09;56210.13;;;-142.21;100.00
5053;BME280;2545;50.892;5.740;2023-07-31T06:46:35;56202.28;;;-142.21;100.00
5053;BME280;2545;50.892;5.740;2023-07-31T06:49:00;56198.38;;;-142.21;100.00
5053;BME280;2545;50.892;5.740;2023-07-31T06:51:25;56219.94;;;-142.21;100.00
5053;BME280;2545;50.892;5.740;2023-07-31T06:53:51;56200.34;;;-142.21;100.00
5053;BME280;2545;50.892;5.740;2023-07-31T06:56:16;56208.16;;;-142.21;100.00
5053;BME280;2545;50.892;5.740;2023-07-31T06:58:42;56241.50;;;-142.21;100.00
5053;BME280;2545;50.892;5.740;2023-07-31T07:01:08;56206.22;;;-142.21;100.00
5053;BME280;2545;50.892;5.740;2023-07-31T07:03:33;56204.25;;;-142.21;100.00
5053;BME280;2545;50.892;5.740;2023-07-31T07:05:59;56194.44;;;-142.21;100.00
5053;BME280;2545;50.892;5.740;2023-07-31T07:08:24;56210.13;;;-142.21;100.00
5053;BME280;2545;50.892;5.740;2023-07-31T07:10:50;56233.66;;;-142.21;100.00
5053;BME280;2545;50.892;5.740;2023-07-31T07:13:15;56227.78;;;-142.21;100.00
5053;BME280;2545;50.892;5.740;2023-07-31T07:15:41;56214.06;;;-142.21;100.00
5053;BME280;2545;50.892;5.740;2023-07-31T07:18:06;56233.66;;;-142.21;100.00
5053;BME280;2545;50.892;5.740;2023-07-31T07:20:32;56270.91;;;-142.21;100.00
5053;BME280;2545;50.892;5.740;2023-07-31T07:22:57;56241.50;;;-142.21;100.00
5053;BME280;2545;50.892;5.740;2023-07-31T07:25:23;56225.81;;;-142.21;100.00
5053;BME280;2545;50.892;5.740;2023-07-31T07:27:48;56196.41;;;-142.21;100.00
5053;BME280;2545;50.892;5.740;2023-07-31T07:30:13;56182.69;;;-142.21;100.00
5053;BME280;2545;50.892;5.740;2023-07-31T07:32:39;56206.22;;;-142.21;100.00
5053;BME280;2545;50.892;5.740;2023-07-31T07:35:06;56210.13;;;-142.21;100.00
5053;BME280;2545;50.892;5.740;2023-07-31T07:37:31;56241.50;;;-142.21;100.00
5053;BME280;2545;50.892;5.740;2023-07-31T07:39:57;56219.94;;;-142.21;100.00
5053;BME280;2545;50.892;5.740;2023-07-31T07:42:22;56188.56;;;-142.21;100.00
5053;BME280;2545;50.892;5.740;2023-07-31T07:44:48;56251.31;;;-142.21;100.00
5053;BME280;2545;50.892;5.740;2023-07-31T07:47:13;56249.34;;;-142.21;100.00
5053;BME280;2545;50.892;5.740;2023-07-31T07:49:38;56233.66;;;-142.21;100.00
5053;BME280;2545;50.892;5.740;2023-07-31T07:52:04;56212.09;;;-142.21;100.00
5053;BME280;2545;50.892;5.740;2023-07-31T07:54:30;56208.16;;;-142.21;100.00
5053;BME280;2545;50.892;5.740;2023-07-31T07:56:55;56249.34;;;-142.21;100.00
5053;BME280;2545;50.892;5.740;2023-07-31T07:59:21;56251.31;;;-142.21;100.00
5053;BME280;2545;50.892;5.740;2023-07-31T08:01:46;56190.53;;;-142.21;100.00
5053;BME280;2545;50.892;5.740;2023-07-31T08:04:11;56239.56;;;-142.21;100.00
5053;BME280;2545;50.892;5.740;2023-07-31T08:06:37;56190.53;;;-142.21;100.00
5053;BME280;2545;50.892;5.740;2023-07-31T08:09:02;56216.00;;;-142.21;100.00
5053;BME280;2545;50.892;5.740;2023-07-31T08:11:32;56225.81;;;-142.21;100.00
5053;BME280;2545;50.892;5.740;2023-07-31T08:13:57;56210.13;;;-142.21;100.00
5053;BME280;2545;50.892;5.740;2023-07-31T08:16:23;56200.34;;;-142.21;100.00
5053;BME280;2545;50.892;5.740;2023-07-31T08:18:48;56214.06;;;-142.21;100.00
5053;BME280;2545;50.892;5.740;2023-07-31T08:21:14;56168.97;;;-142.21;100.00
5053;BME280;2545;50.892;5.740;2023-07-31T08:23:40;56217.97;;;-142.21;100.00
5053;BME280;2545;50.892;5.740;2023-07-31T08:26:05;56212.09;;;-142.21;100.00
5053;BME280;2545;50.892;5.740;2023-07-31T08:28:30;56202.28;;;-142.21;100.00
5053;BME280;2545;50.892;5.740;2023-07-31T08:30:56;56182.69;;;-142.21;100.00
5053;BME280;2545;50.892;5.740;2023-07-31T08:33:21;56206.22;;;-142.21;100.00
5053;BME280;2545;50.892;5.740;2023-07-31T08:35:46;56194.44;;;-142.21;100.00
5053;BME280;2545;50.892;5.740;2023-07-31T08:38:12;56225.81;;;-142.21;100.00
5053;BME280;2545;50.892;5.740;2023-07-31T08:40:38;56217.97;;;-142.21;100.00
5053;BME280;2545;50.892;5.740;2023-07-31T08:43:03;56227.78;;;-142.21;100.00
5053;BME280;2545;50.892;5.740;2023-07-31T08:45:30;56241.50;;;-142.21;100.00
5053;BME280;2545;50.892;5.740;2023-07-31T08:47:56;56247.38;;;-142.21;100.00
5053;BME280;2545;50.892;5.740;2023-07-31T08:50:22;56210.13;;;-142.21;100.00
5053;BME280;2545;50.892;5.740;2023-07-31T08:52:49;56214.06;;;-142.21;100.00
5053;BME280;2545;50.892;5.740;2023-07-31T08:55:15;56239.56;;;-142.21;100.00
5053;BME280;2545;50.892;5.740;2023-07-31T08:57:42;56221.91;;;-142.21;100.00
5053;BME280;2545;50.892;5.740;2023-07-31T09:00:09;56190.53;;;-142.21;100.00
5053;BME280;2545;50.892;5.740;2023-07-31T09:02:42;56239.56;;;-142.21;100.00
5053;BME280;2545;50.892;5.740;2023-07-31T09:05:10;56214.06;;;-142.21;100.00
5053;BME280;2545;50.892;5.740;2023-07-31T09:07:36;56190.53;;;-142.21;100.00
5053;BME280;2545;50.892;5.740;2023-07-31T09:10:03;56229.75;;;-142.21;100.00
5053;BME280;2545;50.892;5.740;2023-07-31T09:12:29;56241.50;;;-142.21;100.00
5053;BME280;2545;50.892;5.740;2023-07-31T09:14:55;56212.09;;;-142.21;100.00
5053;BME280;2545;50.892;5.740;2023-07-31T09:20:13;56231.72;;;-142.21;100.00
5053;BME280;2545;50.892;5.740;2023-07-31T09:22:39;56192.50;;;-142.21;100.00
5053;BME280;2545;50.892;5.740;2023-07-31T09:25:33;56194.44;;;-142.21;100.00
5053;BME280;2545;50.892;5.740;2023-07-31T09:28:04;56206.22;;;-142.21;100.00
5053;BME280;2545;50.892;5.740;2023-07-31T09:30:30;56235.63;;;-142.21;100.00
5053;BME280;2545;50.892;5.740;2023-07-31T09:33:05;56210.13;;;-142.21;100.00
5053;BME280;2545;50.892;5.740;2023-07-31T09:35:34;56241.50;;;-142.21;100.00
5053;BME280;2545;50.892;5.740;2023-07-31T09:38:03;56225.81;;;-142.21;100.00
5053;BME280;2545;50.892;5.740;2023-07-31T09:40:36;56227.78;;;-142.21;100.00
5053;BME280;2545;50.892;5.740;2023-07-31T09:43:04;56227.78;;;-142.21;100.00
5053;BME280;2545;50.892;5.740;2023-07-31T09:45:34;56188.56;;;-142.21;100.00
5053;BME280;2545;50.892;5.740;2023-07-31T09:47:59;56176.78;;;-142.21;100.00
5053;BME280;2545;50.892;5.740;2023-07-31T09:50:25;56194.44;;;-142.21;100.00
5053;BME280;2545;50.892;5.740;2023-07-31T09:52:51;56202.28;;;-142.21;100.00
5053;BME280;2545;50.892;5.740;2023-07-31T09:55:18;56202.28;;;-142.21;100.00
5053;BME280;2545;50.892;5.740;2023-07-31T09:57:48;56233.66;;;-142.21;100.00
5053;BME280;2545;50.892;5.740;2023-07-31T10:00:16;56237.59;;;-142.21;100.00
5053;BME280;2545;50.892;5.740;2023-07-31T10:02:45;56219.94;;;-142.21;100.00
5053;BME280;2545;50.892;5.740;2023-07-31T10:05:12;56214.06;;;-142.21;100.00
5053;BME280;2545;50.892;5.740;2023-07-31T10:07:39;56221.91;;;-142.21;100.00
5053;BME280;2545;50.892;5.740;2023-07-31T10:10:07;56206.22;;;-142.21;100.00
5053;BME280;2545;50.892;5.740;2023-07-31T10:12:35;56257.19;;;-142.21;100.00
5053;BME280;2545;50.892;5.740;2023-07-31T10:15:02;56200.34;;;-142.21;100.00
5053;BME280;2545;50.892;5.740;2023-07-31T10:17:29;56198.38;;;-142.21;100.00
5053;BME280;2545;50.892;5.740;2023-07-31T10:19:56;56206.22;;;-142.21;100.00
5053;BME280;2545;50.892;5.740;2023-07-31T10:22:23;56198.38;;;-142.21;100.00
5053;BME280;2545;50.892;5.740;2023-07-31T10:24:52;56216.00;;;-142.21;100.00
5053;BME280;2545;50.892;5.740;2023-07-31T10:27:19;56219.94;;;-142.21;100.00
5053;BME280;2545;50.892;5.740;2023-07-31T10:29:45;56216.00;;;-142.21;100.00
5053;BME280;2545;50.892;5.740;2023-07-31T10:32:14;56210.13;;;-142.21;100.00
5053;BME280;2545;50.892;5.740;2023-07-31T10:34:41;56170.91;;;-142.21;100.00
5053;BME280;2545;50.892;5.740;2023-07-31T10:37:25;56196.41;;;-142.21;100.00
5053;BME280;2545;50.892;5.740;2023-07-31T10:40:04;56163.06;;;-142.21;100.00
5053;BME280;2545;50.892;5.740;2023-07-31T10:42:38;56180.72;;;-142.21;100.00
5053;BME280;2545;50.892;5.740;2023-07-31T10:45:08;56180.72;;;-142.21;100.00
5053;BME280;2545;50.892;5.740;2023-07-31T10:47:39;56180.72;;;-142.21;100.00
5053;BME280;2545;50.892;5.740;2023-07-31T10:50:19;56178.75;;;-142.21;100.00
5053;BME280;2545;50.892;5.740;2023-07-31T10:52:53;56184.66;;;-142.21;100.00
5053;BME280;2545;50.892;5.740;2023-07-31T10:57:52;56168.97;;;-142.21;100.00
5053;BME280;2545;50.892;5.740;2023-07-31T11:03:08;56161.13;;;-142.21;100.00
5053;BME280;2545;50.892;5.740;2023-07-31T11:05:47;56196.41;;;-142.21;100.00
5053;BME280;2545;50.892;5.740;2023-07-31T11:08:26;56202.28;;;-142.21;100.00
5053;BME280;2545;50.892;5.740;2023-07-31T11:11:05;56188.56;;;-142.21;100.00
5053;BME280;2545;50.892;5.740;2023-07-31T11:13:33;56182.69;;;-142.21;100.00
5053;BME280;2545;50.892;5.740;2023-07-31T11:15:59;56182.69;;;-142.21;100.00
5053;BME280;2545;50.892;5.740;2023-07-31T11:18:26;56190.53;;;-142.21;100.00
5053;BME280;2545;50.892;5.740;2023-07-31T11:20:53;56194.44;;;-142.21;100.00
5053;BME280;2545;50.892;5.740;2023-07-31T11:23:19;56204.25;;;-142.21;100.00
5053;BME280;2545;50.892;5.740;2023-07-31T11:25:45;56174.84;;;-142.21;100.00
5053;BME280;2545;50.892;5.740;2023-07-31T11:28:12;56198.38;;;-142.21;100.00
5053;BME280;2545;50.892;5.740;2023-07-31T11:30:42;56194.44;;;-142.21;100.00
5053;BME280;2545;50.892;5.740;2023-07-31T11:33:08;56184.66;;;-142.21;100.00
5053;BME280;2545;50.892;5.740;2023-07-31T11:35:43;56180.72;;;-142.21;100.00
5053;BME280;2545;50.892;5.740;2023-07-31T11:38:11;56223.84;;;-142.21;100.00
5053;BME280;2545;50.892;5.740;2023-07-31T11:40:43;56206.22;;;-142.21;100.00
5053;BME280;2545;50.892;5.740;2023-07-31T11:43:09;56165.03;;;-142.21;100.00
5053;BME280;2545;50.892;5.740;2023-07-31T11:45:36;56178.75;;;-142.21;100.00
5053;BME280;2545;50.892;5.740;2023-07-31T11:48:02;56180.72;;;-142.21;100.00
5053;BME280;2545;50.892;5.740;2023-07-31T11:50:28;56182.69;;;-142.21;100.00
5053;BME280;2545;50.892;5.740;2023-07-31T11:52:57;56143.47;;;-142.21;100.00
5053;BME280;2545;50.892;5.740;2023-07-31T11:55:24;56188.56;;;-142.21;100.00
5053;BME280;2545;50.892;5.740;2023-07-31T11:57:51;56159.16;;;-142.21;100.00
5053;BME280;2545;50.892;5.740;2023-07-31T12:00:17;56194.44;;;-142.21;100.00
5053;BME280;2545;50.892;5.740;2023-07-31T12:02:43;56176.78;;;-142.21;97.92
5053;BME280;2545;50.892;5.740;2023-07-31T12:05:12;56151.31;;;-142.21;99.24
5053;BME280;2545;50.892;5.740;2023-07-31T12:07:50;56161.13;;;-142.21;100.00
5053;BME280;2545;50.892;5.740;2023-07-31T12:10:29;56186.59;;;-142.21;99.84
5053;BME280;2545;50.892;5.740;2023-07-31T12:13:06;56135.63;;;-142.21;98.18
5053;BME280;2545;50.892;5.740;2023-07-31T12:15:36;56188.56;;;-142.21;99.35
5053;BME280;2545;50.892;5.740;2023-07-31T12:18:07;56165.03;;;-142.21;96.84
5053;BME280;2545;50.892;5.740;2023-07-31T12:20:33;56155.22;;;-142.21;94.82
5053;BME280;2545;50.892;5.740;2023-07-31T12:22:59;56194.44;;;-142.21;94.79
5053;BME280;2545;50.892;5.740;2023-07-31T12:25:33;56176.78;;;-142.21;95.54
5053;BME280;2545;50.892;5.740;2023-07-31T12:28:04;56163.06;;;-142.21;92.18
5053;BME280;2545;50.892;5.740;2023-07-31T12:30:32;56190.53;;;-142.21;93.59
5053;BME280;2545;50.892;5.740;2023-07-31T12:33:12;56159.16;;;-142.21;89.99
5053;BME280;2545;50.892;5.740;2023-07-31T12:35:41;56178.75;;;-142.21;90.96
5053;BME280;2545;50.892;5.740;2023-07-31T12:38:06;56200.34;;;-142.21;92.09
5053;BME280;2545;50.892;5.740;2023-07-31T12:40:32;56163.06;;;-142.21;89.58
5053;BME280;2545;50.892;5.740;2023-07-31T12:42:58;56170.91;;;-142.21;89.30
5053;BME280;2545;50.892;5.740;2023-07-31T12:45:25;56157.19;;;-142.21;86.74
5053;BME280;2545;50.892;5.740;2023-07-31T12:47:52;56159.16;;;-142.21;82.86
5053;BME280;2545;50.892;5.740;2023-07-31T12:50:17;56143.47;;;-142.21;83.03
5053;BME280;2545;50.892;5.740;2023-07-31T12:52:42;56123.84;;;-142.21;81.33
5053;BME280;2545;50.892;5.740;2023-07-31T12:55:08;56163.06;;;-142.21;76.84
5053;BME280;2545;50.892;5.740;2023-07-31T12:57:34;56139.53;;;-142.21;77.74
5053;BME280;2545;50.892;5.740;2023-07-31T12:59:59;56137.59;;;-142.21;72.50